Deerfield, WI (53531)

1:35 AM CDT on September 21, 2014 (GMT -0500)
Cottage Grove | Change Station
CLOSE
Current Station
Personal Weather Station
Location: Cottage Grove, WI
Elevation: 983 ft
Nearby Weather Stations

Elev 983 ft 43.10 °N, 89.20 °W | Updated 14 seconds ago

Mostly Cloudy
Mostly Cloudy
59.0 °F
Feels Like 59.0 °F
N
8.0
Wind Variable Wind from West
Gusts 16.0 mph

Today
High -- | Low -- °F
--% Chance of Precip.
Yesterday
High -- | Low -- °F
Precip. -- in
6:42 AM 6:55 PM
Waning Crescent, 8% visible
Pressure 29.75 in
Visibility 10.0 miles
Clouds Few 2900 ft
Dew Point 54 °F
Humidity 83%
Rainfall 0.00 in
Snow Depth Not available.
UV 0 out of 12
Pollen .60 out of 12
Ozone Good
PM2.5 Good
Flu Activity Not available.
METAR KMSN 210553Z AUTO 31012G19KT 10SM FEW029 16/13 A2976 RMK AO2 SLP073 60007 T01610133 10228 20161 402560161 53013

More Conditions Fewer Conditions

Pressure 29.75 in
Visibility 10.0 miles
Clouds Few 2900 ft
Dew Point 54 °F
Humidity 83%
Rainfall 0.00 in
Snow Depth Not available.
UV 0 out of 12
Pollen .60 out of 12
Ozone Good
PM2.5 Good
Flu Activity Not available.
METAR KMSN 210553Z AUTO 31012G19KT 10SM FEW029 16/13 A2976 RMK AO2 SLP073 60007 T01610133 10228 20161 402560161 53013

More Conditions Fewer Conditions

10-Day Weather Forecast

Almanac

Astronomy

Sep. 21, 2014 Rise Set
Actual Time 6:42 AM CDT 6:55 PM CDT
Civil Twilight 6:14 AM CDT 7:23 PM CDT
Nautical Twilight 5:40 AM CDT 7:57 PM CDT
Astronomical Twilight 5:06 AM CDT 8:31 PM CDT
Moon 4:13 AM CDT 5:33 PM CDT
Length of Visible Light 13h 09m
Length of Day
12h 12m
Tomorrow will be 2m 54s shorter.
Waning Crescent, 8% of the Moon is Illuminated
Today
Waning Crescent
Sep 24
New
Oct 1
First Quarter
Oct 8
Full
Oct 15
Last Quarter

Today's Extremes

State Highs State Lows

Community

WunderPhotos

Upload Photos

1,755,098 photos uploaded!

Nearby

Air Quality

  Air Quality AQ Index Pollutant
Yesterday Good
OZONE
Yesterday Good
PM2.5
Current Good
PM2.5
Current Good
OZONE
Saturday Moderate
OZONE
Saturday Moderate
PM2.5
Sunday Good
OZONE
Sunday Good
PM2.5
Monday Good
OZONE
Monday Good
PM2.5

Snow Depth

Station Depth Elevation
No new snow has been reported.

Earthquake Activity

City Distance Mag. Time & Date
No recent earthquake activity has been reported nearby.
Minimum magnitude displayed is 2.5.

Coastal Water Temperatures

Place Temperature
No Stations Reporting

Nearby Weather Stations